Amunt
Inicio > meteoXarxa
Fes-te'n soci

METEOXARXA

Atzeneta del Maestrat
Ubicació poble
Comarca l′Alcalatén
Altitud (msnm)
Posició geogràfica 40° 13' 41.88" N, 00° 10' 6.96" W
Model Instrumentació oficial
Presa de dades
Font de les dades AEMET
Estadístiques. Resum
Data Temperatura (ºC) Humitat (%) Pressió (hPa) Vent (km/h) Precipit. (mm)
Mínima Mitjana Màxima Mínima Mitjana Màxima Mínima Mitjana Màxima Predom. Mitjana Ràfega màxima Total Dies de pluja
Mínima Mitjana Màxima Mínima Mitjana Màxima
Últimes dades diàries
20-02-2017 0,6     8,7     16,8 18,0 0,0  
19-02-2017 3,6     9,5     15,5 23,0 0,0  
18-02-2017 0,9     8,6     16,3 22,0 0,0  
17-02-2017 1,9     9,3     16,8 20,0 0,0  
16-02-2017 5,3     9,7     14,1 19,0 0,0  
15-02-2017 1,4     9,3     17,1 21,0 0,0  
14-02-2017 1,4     9,4     17,4 28,0 0,2  
13-02-2017          
12-02-2017 7,7     10,4     13,1 23,0 0,0  
11-02-2017 4,4     7,8     11,2 27,0 0,8  
10-02-2017 -0,7     5,8     12,4 21,0 0,0  
09-02-2017 0,6     7,7     14,9 33,0 0,0  
08-02-2017 6,8     9,2     11,5 95,0 0,0  
07-02-2017 9,8     14,7     19,5 52,0 0,0  
06-02-2017 8,1     12,1     16,0 99,0 0,0  
05-02-2017 7,2     11,0     14,8 90,0 3,6  
04-02-2017 10,9     15,1     19,3 36,0 0,0  
03-02-2017 3,3     11,1     18,9 76,0 0,2  
02-02-2017 2,0     6,0     10,0 14,0 2,2  
31-01-2017          
30-01-2017 4,2     11,0     17,9 16,0 0,0  
29-01-2017 0,6     7,2     13,8 24,0 0,0  
28-01-2017 4,7     8,9     13,2 61,0 2,8  
27-01-2017 4,8     8,7     12,5 40,0 14,4  
26-01-2017 -1,2     4,0     9,2 16,0 0,0  
25-01-2017 -2,1     5,5     13,2 26,0 0,0  
24-01-2017 0,3     7,0     13,7 29,0 0,0  
23-01-2017 6,3     8,3     10,3 46,0 0,0  
22-01-2017 6,6     8,1     9,7 48,0 0,2  
21-01-2017 4,6     6,5     8,3 57,0 3,0  
20-01-2017 0,7     3,6     6,5 37,0 56,8  
19-01-2017 -0,2     2,6     5,4 45,0 21,4  
Dades del mes en curs (actualitzades fins l'últim dia disponible)
02/2017 -0,7 4,2 10,9 9,7 10,0 15,3 19,5   99,0 7,0  
Últimes dades mensuals
01/2017 -2,3 1,3 8,6 7,0 5,4 12,8 18,8 107,0 98,8 7
12/2016 -3,0 3,8 11,4 9,4 8,7 15,0 18,3 55,0 69,0 9
11/2016 -0,7 5,8 12,9 11,5 11,3 17,3 24,3 71,0 81,0 10
10/2016 4,7 11,4 15,4 17,3 16,8 23,3 28,5 37,0 19,4 8
09/2016 8,4 14,0 20,0 21,2 22,9 28,4 38,2 60,0 27,4 7
08/2016 10,6 16,2 21,2 23,7 24,6 31,3 34,7 49,0 19,6 4
07/2016 11,9 16,3 19,6 24,3 27,6 32,3 36,2 41,0 0,8 2
06/2016 8,6 13,6 19,4 21,5 24,8 29,4 33,3 49,0 4,2 7
05/2016 1,6 9,4 13,6 15,9 14,0 22,4 29,1 73,0 53,6 8
04/2016 1,2 7,2 11,4 13,5 12,7 19,8 27,1 76,0 31,4 11
03/2016 -2,3 4,2 8,5 10,4 8,3 16,5 24,2 93,0 36,0 9
02/2016 -3,2 3,7 12,4 10,5 8,5 17,3 23,5 95,0 7,2 7
01/2016 -1,2 3,2 7,0 9,7 12,1 16,2 20,6 58,0 0,2 1
Dades de l'any en curs (actualitzades fins l'últim dia disponible)
2017 -2,3 2,4 10,9 8,1 5,4 13,7 19,5   107,0 105,8  
Últimes dades anuals
2013 -5,1 8,2 13,5 14,9 19,5 21,6 34,9 122,0 408,2 76